Time;durP1;ratioP1;P1;durP2;ratioP2;P2;SDS_P1;SDS_P2;PMS_P1;PMS_P2;Temp;Humidity;BMP_temperature;BMP_pressure;BME280_temperature;BME280_humidity;BME280_pressure;Samples;Min_cycle;Max_cycle;Signal;HPM_P1;HPM_P2
2022/08/10 00:00:20;;;;;;;71.87;4.60;;;23.20;1.00;;;;;;5089377;28;20188;-82
2022/08/10 00:02:47;;;;;;;71.60;4.47;;;23.20;1.00;;;;;;5090143;28;20161;-82
2022/08/10 00:05:12;;;;;;;69.60;4.20;;;23.20;1.00;;;;;;5089310;28;20398;-82
2022/08/10 00:07:38;;;;;;;67.33;4.00;;;23.10;1.00;;;;;;5089810;28;20474;-83
2022/08/10 00:10:05;;;;;;;68.87;4.20;;;23.10;1.00;;;;;;5089787;28;20171;-82
2022/08/10 00:12:31;;;;;;;69.33;4.60;;;23.10;1.00;;;;;;5089427;28;20164;-82
2022/08/10 00:14:57;;;;;;;68.47;5.07;;;23.00;1.00;;;;;;5089392;28;20412;-81
2022/08/10 00:17:23;;;;;;;69.27;4.80;;;22.90;1.00;;;;;;5071779;28;20609;-81
2022/08/10 00:19:50;;;;;;;70.50;5.60;;;22.90;1.00;;;;;;5090017;28;20434;-81
2022/08/10 00:22:16;;;;;;;69.87;5.30;;;22.80;1.00;;;;;;5090022;28;20165;-82
2022/08/10 00:24:41;;;;;;;68.20;4.83;;;22.80;1.00;;;;;;5089631;28;20425;-81
2022/08/10 00:27:07;;;;;;;68.30;4.93;;;22.70;1.00;;;;;;5090389;28;20184;-82
2022/08/10 00:29:33;;;;;;;66.80;4.23;;;22.70;1.00;;;;;;5089575;28;20172;-81
2022/08/10 00:31:58;;;;;;;70.43;4.50;;;22.70;1.00;;;;;;5090095;28;20176;-82
2022/08/10 00:34:31;;;;;;;75.53;4.90;;;22.70;1.00;;;;;;5089727;28;20164;-82
2022/08/10 00:36:57;;;;;;;69.90;4.83;;;22.60;1.00;;;;;;5089757;28;20583;-82
2022/08/10 00:39:24;;;;;;;67.67;5.17;;;22.60;1.00;;;;;;5088902;28;20533;-82
2022/08/10 00:41:50;;;;;;;68.70;4.47;;;22.60;1.00;;;;;;5089657;28;20455;-82
2022/08/10 00:44:16;;;;;;;71.73;4.60;;;22.50;1.00;;;;;;5089966;28;20402;-81
2022/08/10 00:46:41;;;;;;;68.30;5.03;;;22.50;1.00;;;;;;5089364;28;20188;-82
2022/08/10 00:49:07;;;;;;;66.50;4.27;;;22.40;1.00;;;;;;5089767;28;20202;-82
2022/08/10 00:51:33;;;;;;;67.27;4.77;;;22.40;1.00;;;;;;5089055;28;20411;-82
2022/08/10 00:53:59;;;;;;;68.20;4.33;;;22.40;1.00;;;;;;5089295;28;20172;-82
2022/08/10 00:56:26;;;;;;;67.20;4.00;;;22.40;1.00;;;;;;5089106;28;20433;-82
2022/08/10 00:58:52;;;;;;;67.70;4.40;;;22.30;1.00;;;;;;5088940;28;21023;-82
2022/08/10 01:01:17;;;;;;;67.80;4.40;;;22.20;1.00;;;;;;5089164;28;20410;-82
2022/08/10 01:03:43;;;;;;;66.53;3.63;;;22.20;1.00;;;;;;5089002;28;20626;-82
2022/08/10 01:06:22;;;;;;;66.50;3.77;;;22.20;1.00;;;;;;5089489;28;20180;-82
2022/08/10 01:09:00;;;;;;;67.90;3.77;;;22.10;1.00;;;;;;5088724;28;20152;-82
2022/08/10 01:11:37;;;;;;;69.13;4.80;;;22.10;1.00;;;;;;5089790;28;20493;-82
2022/08/10 01:14:25;;;;;;;67.50;4.00;;;22.10;1.00;;;;;;5089711;28;20742;-82
2022/08/10 01:17:05;;;;;;;68.50;4.60;;;22.00;1.00;;;;;;5088713;28;20425;-82
2022/08/10 01:19:42;;;;;;;68.07;4.47;;;22.00;1.00;;;;;;5088942;28;20429;-82
2022/08/10 01:22:23;;;;;;;69.10;4.30;;;22.00;1.00;;;;;;5088609;28;20409;-82
2022/08/10 01:25:10;;;;;;;67.97;4.60;;;21.90;1.00;;;;;;5090679;28;20421;-82
2022/08/10 01:27:56;;;;;;;67.90;4.97;;;21.90;1.00;;;;;;5092841;28;20410;-82
2022/08/10 01:30:26;;;;;;;69.07;5.27;;;21.90;1.00;;;;;;5092266;28;20386;-82
2022/08/10 01:33:09;;;;;;;68.60;6.23;;;21.90;1.00;;;;;;5092581;28;20398;-82
2022/08/10 01:36:03;;;;;;;70.03;6.20;;;21.80;1.00;;;;;;5092875;28;20461;-81
2022/08/10 01:38:34;;;;;;;66.90;5.90;;;21.80;1.00;;;;;;5091051;28;20591;-82
2022/08/10 01:41:27;;;;;;;67.27;6.10;;;21.80;1.00;;;;;;5090910;28;20371;-82
2022/08/10 01:44:00;;;;;;;69.17;6.97;;;21.70;1.00;;;;;;5091530;28;20437;-82
2022/08/10 01:46:28;;;;;;;68.60;8.00;;;21.60;1.00;;;;;;5092113;28;20410;-81
2022/08/10 01:48:55;;;;;;;68.67;8.47;;;21.60;1.00;;;;;;5091914;28;20403;-81
2022/08/10 01:51:29;;;;;;;68.93;8.07;;;21.60;1.00;;;;;;5091573;28;20399;-81
2022/08/10 01:54:05;;;;;;;68.70;8.67;;;21.60;1.00;;;;;;5092101;28;20450;-82
2022/08/10 01:56:35;;;;;;;69.37;8.53;;;21.50;1.00;;;;;;5091610;28;20422;-81
2022/08/10 01:59:06;;;;;;;69.30;9.50;;;21.50;1.00;;;;;;5091342;28;20442;-81
2022/08/10 02:01:39;;;;;;;68.70;9.70;;;21.50;1.00;;;;;;5073832;28;20448;-82
2022/08/10 02:04:08;;;;;;;71.17;10.77;;;21.40;1.00;;;;;;5092749;28;20885;-82
2022/08/10 02:06:52;;;;;;;69.43;10.93;;;21.40;1.00;;;;;;5092326;28;20429;-82
2022/08/10 02:09:27;;;;;;;70.00;9.53;;;21.40;1.00;;;;;;5091863;28;20406;-82
2022/08/10 02:11:57;;;;;;;69.27;10.17;;;21.40;1.00;;;;;;5092734;28;20389;-82
2022/08/10 02:14:27;;;;;;;69.57;9.33;;;21.30;1.00;;;;;;5092079;28;20395;-82
2022/08/10 02:16:53;;;;;;;70.70;9.03;;;21.20;1.00;;;;;;5091461;28;20426;-82
2022/08/10 02:19:22;;;;;;;68.70;8.37;;;21.20;1.00;;;;;;5091209;28;20521;-82
2022/08/10 02:21:50;;;;;;;68.30;8.83;;;21.20;1.00;;;;;;5091831;28;20427;-81
2022/08/10 02:24:16;;;;;;;67.90;8.57;;;21.20;1.00;;;;;;5073231;28;20449;-82
2022/08/10 02:26:43;;;;;;;70.47;8.23;;;21.20;1.00;;;;;;5091592;28;20449;-82
2022/08/10 02:29:12;;;;;;;67.90;7.77;;;21.10;1.00;;;;;;5091334;28;20497;-82
2022/08/10 02:31:39;;;;;;;67.57;7.10;;;21.10;1.00;;;;;;5091824;28;20425;-82
2022/08/10 02:34:09;;;;;;;68.37;6.83;;;21.00;1.00;;;;;;5091335;28;20412;-82
2022/08/10 02:36:37;;;;;;;67.67;6.00;;;21.00;1.00;;;;;;5090815;28;20451;-81
2022/08/10 02:39:06;;;;;;;71.93;6.30;;;21.00;1.00;;;;;;5091261;28;20438;-81
2022/08/10 02:41:41;;;;;;;68.17;5.63;;;20.90;1.00;;;;;;5072580;28;20513;-81
2022/08/10 02:44:46;;;;;;;69.70;5.40;;;20.90;1.00;;;;;;5090762;28;20393;-81
2022/08/10 02:47:34;;;;;;;66.90;4.97;;;20.90;1.00;;;;;;5090763;28;20402;-81
2022/08/10 02:50:17;;;;;;;67.20;5.13;;;20.90;1.00;;;;;;5090285;28;20375;-81
2022/08/10 02:52:50;;;;;;;66.63;4.63;;;20.70;1.00;;;;;;5072490;28;20409;-81
2022/08/10 02:55:47;;;;;;;69.40;5.10;;;20.70;1.00;;;;;;5090281;28;20889;-82
2022/08/10 02:58:33;;;;;;;69.00;4.80;;;20.70;1.00;;;;;;5072592;28;20404;-81
2022/08/10 03:01:04;;;;;;;68.10;4.83;;;20.70;1.00;;;;;;5090197;28;20458;-81
2022/08/10 03:03:39;;;;;;;67.03;4.77;;;20.70;1.00;;;;;;5073353;28;20492;-81
2022/08/10 03:06:09;;;;;;;67.17;4.70;;;20.60;1.00;;;;;;5090027;28;20421;-84
2022/08/10 03:08:40;;;;;;;68.00;5.10;;;20.60;1.20;;;;;;5090822;28;20393;-81
2022/08/10 03:11:09;;;;;;;67.60;4.87;;;20.60;2.40;;;;;;5090107;28;20382;-81
2022/08/10 03:13:35;;;;;;;67.20;4.40;;;20.50;4.00;;;;;;5089229;28;20399;-81
2022/08/10 03:16:02;;;;;;;67.70;4.70;;;20.50;5.20;;;;;;5089997;28;20494;-80
2022/08/10 03:18:30;;;;;;;67.60;4.60;;;20.40;5.80;;;;;;5072378;28;20512;-81
2022/08/10 03:20:57;;;;;;;66.30;4.10;;;20.40;7.50;;;;;;5090398;28;20428;-81
2022/08/10 03:23:25;;;;;;;70.03;4.63;;;20.40;8.00;;;;;;5088816;28;20511;-82
2022/08/10 03:25:56;;;;;;;68.53;5.20;;;20.40;9.00;;;;;;5089466;28;20436;-82
2022/08/10 03:28:27;;;;;;;69.23;5.40;;;20.40;8.80;;;;;;5088672;28;20461;-81
2022/08/10 03:30:54;;;;;;;67.87;5.43;;;20.40;8.60;;;;;;5090061;28;20398;-82
2022/08/10 03:33:22;;;;;;;68.57;4.90;;;20.30;9.00;;;;;;5089970;28;20410;-82
2022/08/10 03:35:49;;;;;;;66.97;4.83;;;20.30;9.80;;;;;;5090321;28;20419;-82
2022/08/10 03:38:15;;;;;;;67.77;4.70;;;20.30;10.60;;;;;;5089391;28;20415;-82
2022/08/10 03:40:41;;;;;;;67.43;4.73;;;20.30;11.60;;;;;;5089930;28;20405;-82
2022/08/10 03:43:10;;;;;;;66.87;4.83;;;20.30;11.20;;;;;;5090013;28;20236;-82
2022/08/10 03:45:37;;;;;;;68.90;4.37;;;20.20;12.00;;;;;;5089002;28;20439;-82
2022/08/10 03:48:05;;;;;;;72.10;5.10;;;20.20;12.90;;;;;;5087991;28;20404;-82
2022/08/10 03:50:31;;;;;;;66.27;4.40;;;20.10;13.30;;;;;;5089014;28;20458;-81
2022/08/10 03:52:57;;;;;;;66.70;4.43;;;20.10;14.30;;;;;;5071305;28;20412;-81
2022/08/10 03:55:24;;;;;;;67.40;5.23;;;20.10;14.90;;;;;;5088485;28;20467;-81
2022/08/10 03:57:50;;;;;;;66.97;4.37;;;20.00;15.90;;;;;;5088535;28;20430;-81
2022/08/10 04:00:19;;;;;;;69.50;5.00;;;20.00;16.80;;;;;;5088232;28;20449;-81
2022/08/10 04:02:47;;;;;;;72.70;5.77;;;19.90;18.50;;;;;;5088442;28;20410;-82
2022/08/10 04:05:16;;;;;;;67.07;4.70;;;19.90;18.40;;;;;;5071245;28;20444;-81
2022/08/10 04:07:43;;;;;;;73.83;4.70;;;19.90;18.40;;;;;;5088163;28;20446;-82
2022/08/10 04:10:09;;;;;;;68.37;5.13;;;19.90;18.80;;;;;;5088572;28;20412;-82
2022/08/10 04:12:35;;;;;;;69.20;5.10;;;19.90;19.40;;;;;;5070786;28;20785;-81
2022/08/10 04:15:01;;;;;;;67.90;5.47;;;19.90;19.60;;;;;;5088553;28;20397;-82
2022/08/10 04:17:27;;;;;;;66.70;4.90;;;19.90;19.40;;;;;;5089005;28;20450;-82
2022/08/10 04:19:54;;;;;;;69.00;5.47;;;19.90;18.80;;;;;;5070853;28;20195;-82
2022/08/10 04:22:23;;;;;;;67.47;5.10;;;19.90;19.50;;;;;;5088740;28;20164;-82
2022/08/10 04:24:54;;;;;;;66.87;5.30;;;19.90;19.80;;;;;;5088603;28;20426;-82
2022/08/10 04:27:20;;;;;;;69.40;5.40;;;19.80;21.90;;;;;;5088108;28;20422;-82
2022/08/10 04:29:47;;;;;;;67.50;5.47;;;19.80;21.70;;;;;;5088124;28;20470;-81
2022/08/10 04:32:19;;;;;;;72.13;6.07;;;19.70;23.00;;;;;;5071098;28;20418;-81
2022/08/10 04:34:46;;;;;;;67.80;5.40;;;19.70;22.90;;;;;;5071516;28;20477;-82
2022/08/10 04:37:13;;;;;;;66.87;4.97;;;19.70;22.30;;;;;;5087972;28;20433;-82
2022/08/10 04:39:39;;;;;;;69.40;5.40;;;19.70;23.90;;;;;;5087696;28;20469;-82
2022/08/10 04:42:08;;;;;;;68.73;5.60;;;19.70;23.30;;;;;;5087756;28;20769;-82
2022/08/10 04:44:34;;;;;;;69.10;6.37;;;19.70;23.90;;;;;;5088739;28;20457;-82
2022/08/10 04:47:00;;;;;;;68.37;6.63;;;19.70;24.20;;;;;;5089148;28;20412;-82
2022/08/10 04:49:26;;;;;;;68.07;6.77;;;19.60;25.70;;;;;;5087687;28;20956;-82
2022/08/10 04:51:52;;;;;;;70.10;5.80;;;19.60;26.20;;;;;;5088510;28;20221;-82
2022/08/10 04:54:17;;;;;;;70.07;8.03;;;19.70;26.10;;;;;;5088476;28;20411;-81
2022/08/10 04:56:43;;;;;;;69.73;7.97;;;19.70;27.00;;;;;;5088965;28;20181;-82
2022/08/10 04:59:10;;;;;;;68.50;7.47;;;19.70;27.40;;;;;;5089136;28;20189;-82
2022/08/10 05:01:38;;;;;;;68.23;7.50;;;19.80;27.90;;;;;;5092509;28;20170;-82
2022/08/10 05:04:04;;;;;;;68.77;8.40;;;19.80;28.70;;;;;;5074874;28;20410;-82
2022/08/10 05:06:29;;;;;;;68.40;6.40;;;19.80;28.70;;;;;;5093070;28;20517;-82
2022/08/10 05:08:55;;;;;;;69.40;7.37;;;19.80;29.00;;;;;;5092527;28;20194;-82
2022/08/10 05:11:21;;;;;;;68.73;7.70;;;19.80;30.90;;;;;;5074456;28;20174;-82
2022/08/10 05:13:46;;;;;;;68.70;8.90;;;19.80;32.40;;;;;;5091982;28;20175;-82
2022/08/10 05:16:12;;;;;;;70.50;10.43;;;19.80;32.40;;;;;;5092573;28;20716;-82
2022/08/10 05:18:38;;;;;;;69.03;9.37;;;19.80;34.70;;;;;;5089013;28;20705;-82
2022/08/10 05:21:04;;;;;;;68.20;9.70;;;19.90;34.70;;;;;;5091979;28;20188;-82
2022/08/10 05:23:30;;;;;;;69.40;12.10;;;19.90;36.10;;;;;;5091590;28;20639;-82
2022/08/10 05:25:55;;;;;;;69.13;11.90;;;19.90;35.60;;;;;;5091485;28;20481;-82
2022/08/10 05:28:21;;;;;;;71.30;11.20;;;19.90;39.00;;;;;;5091648;28;20225;-82
2022/08/10 05:30:47;;;;;;;70.07;11.47;;;19.90;37.90;;;;;;5092014;28;20184;-82
2022/08/10 05:33:12;;;;;;;69.17;10.13;;;20.00;38.10;;;;;;5075036;28;20173;-82
2022/08/10 05:35:38;;;;;;;75.90;12.53;;;20.00;39.90;;;;;;5091704;28;20428;-81
2022/08/10 05:38:06;;;;;;;73.60;13.37;;;20.10;41.20;;;;;;5091639;28;20160;-82
2022/08/10 05:40:34;;;;;;;69.37;11.93;;;20.10;42.10;;;;;;5091879;28;20186;-82
2022/08/10 05:43:00;;;;;;;69.90;11.93;;;20.10;43.00;;;;;;5092243;28;20456;-81
2022/08/10 05:45:27;;;;;;;75.83;9.57;;;20.10;43.60;;;;;;5091500;28;20410;-81
2022/08/10 05:47:53;;;;;;;71.67;11.50;;;20.20;42.00;;;;;;5091940;28;20167;-81
2022/08/10 05:50:23;;;;;;;72.27;12.00;;;20.20;40.30;;;;;;5091722;28;20404;-82
2022/08/10 05:52:49;;;;;;;74.40;10.53;;;20.20;40.70;;;;;;5073818;28;20420;-82
2022/08/10 05:55:15;;;;;;;70.60;9.67;;;20.30;38.60;;;;;;5091389;28;20554;-82
2022/08/10 05:57:42;;;;;;;72.00;9.87;;;20.30;38.20;;;;;;5091327;28;20501;-82
2022/08/10 06:00:11;;;;;;;68.90;9.43;;;20.30;37.20;;;;;;5090851;28;20453;-81
2022/08/10 06:02:40;;;;;;;67.83;7.93;;;20.40;36.60;;;;;;5091335;28;20845;-82
2022/08/10 06:05:09;;;;;;;71.57;8.67;;;20.40;34.40;;;;;;5090003;28;20400;-81
2022/08/10 06:07:43;;;;;;;69.40;8.30;;;20.30;32.90;;;;;;5091103;28;20418;-82
2022/08/10 06:10:12;;;;;;;67.80;6.90;;;20.30;32.10;;;;;;5072126;28;20407;-82
2022/08/10 06:12:39;;;;;;;75.23;6.60;;;20.40;31.50;;;;;;5090709;28;20401;-82
2022/08/10 06:15:07;;;;;;;73.20;8.80;;;20.40;29.80;;;;;;5090846;28;20917;-81
2022/08/10 06:17:33;;;;;;;70.53;7.30;;;20.40;31.50;;;;;;5070155;28;20430;-81
2022/08/10 06:20:00;;;;;;;68.20;6.60;;;20.40;29.50;;;;;;5089183;28;20444;-81
2022/08/10 06:22:27;;;;;;;68.80;6.90;;;20.50;28.80;;;;;;5090067;28;20406;-81
2022/08/10 06:24:55;;;;;;;68.87;7.93;;;20.50;28.40;;;;;;5071870;28;20459;-81
2022/08/10 06:27:20;;;;;;;70.40;7.70;;;20.60;28.20;;;;;;5089169;28;20414;-81
2022/08/10 06:29:49;;;;;;;68.70;6.60;;;20.60;27.70;;;;;;5089849;28;20445;-82
2022/08/10 06:32:17;;;;;;;70.27;5.73;;;20.70;26.50;;;;;;5071858;28;20181;-82
2022/08/10 06:34:46;;;;;;;72.10;6.10;;;20.70;25.80;;;;;;5089828;28;20407;-82
2022/08/10 06:37:16;;;;;;;69.00;5.47;;;20.70;25.10;;;;;;5072259;28;20433;-82
2022/08/10 06:39:43;;;;;;;69.10;5.90;;;20.80;24.60;;;;;;5089580;28;20442;-82
2022/08/10 06:42:17;;;;;;;69.17;6.67;;;20.80;24.00;;;;;;5089609;28;20956;-82
2022/08/10 06:44:57;;;;;;;69.67;5.23;;;20.80;25.30;;;;;;5089785;28;20401;-82
2022/08/10 06:47:28;;;;;;;70.23;4.93;;;20.90;20.80;;;;;;5088523;28;20509;-82
2022/08/10 06:49:58;;;;;;;67.03;4.73;;;20.90;20.50;;;;;;5069353;28;20444;-81
2022/08/10 06:52:25;;;;;;;72.33;5.00;;;20.90;19.00;;;;;;5087363;28;20459;-82
2022/08/10 06:54:54;;;;;;;69.30;5.03;;;21.00;17.40;;;;;;5088024;28;20403;-81
2022/08/10 06:57:26;;;;;;;67.87;5.27;;;21.00;16.00;;;;;;5087498;28;20426;-81
2022/08/10 06:59:54;;;;;;;72.97;5.60;;;21.00;16.70;;;;;;5068965;28;20443;-82
2022/08/10 07:02:25;;;;;;;68.40;5.10;;;21.00;11.80;;;;;;5087410;28;20398;-81
2022/08/10 07:04:57;;;;;;;69.50;4.93;;;21.10;4.80;;;;;;5086549;28;20881;-81
2022/08/10 07:07:26;;;;;;;68.77;4.97;;;21.20;1.40;;;;;;5086456;28;20425;-80
2022/08/10 07:09:53;;;;;;;71.90;4.40;;;21.20;1.00;;;;;;5087661;28;20438;-81
2022/08/10 07:12:20;;;;;;;67.07;4.10;;;21.30;1.70;;;;;;5087111;28;20434;-81
2022/08/10 07:14:47;;;;;;;67.10;4.67;;;21.40;1.00;;;;;;5086836;28;20410;-81
2022/08/10 07:17:17;;;;;;;67.27;4.33;;;21.50;1.00;;;;;;5069878;28;20434;-81
2022/08/10 07:19:49;;;;;;;70.30;5.43;;;21.60;1.00;;;;;;5086456;28;20437;-81
2022/08/10 07:22:16;;;;;;;67.97;4.60;;;21.70;1.00;;;;;;5068621;28;20460;-80
2022/08/10 07:24:43;;;;;;;69.07;4.90;;;21.80;1.00;;;;;;5086150;28;20418;-81
2022/08/10 07:27:10;;;;;;;67.70;4.70;;;21.80;1.00;;;;;;5087242;28;20968;-81
2022/08/10 07:29:38;;;;;;;77.10;5.40;;;21.80;1.00;;;;;;5087092;28;20396;-81
2022/08/10 07:32:05;;;;;;;73.33;4.90;;;22.00;1.00;;;;;;5087152;28;20411;-81
2022/08/10 07:34:34;;;;;;;68.17;4.60;;;22.00;1.00;;;;;;5087101;28;20430;-81
2022/08/10 07:37:04;;;;;;;69.57;5.43;;;22.10;1.00;;;;;;5086266;28;20497;-81
2022/08/10 07:39:35;;;;;;;69.70;5.27;;;22.10;1.00;;;;;;5087320;28;20461;-81
2022/08/10 07:42:04;;;;;;;68.03;5.33;;;22.20;1.00;;;;;;5067951;28;20969;-82
2022/08/10 07:44:32;;;;;;;68.37;6.47;;;22.20;1.00;;;;;;5086930;28;20398;-82
2022/08/10 07:47:02;;;;;;;68.50;6.43;;;22.20;1.00;;;;;;5086491;28;20426;-81
2022/08/10 07:49:34;;;;;;;68.90;7.47;;;22.20;1.00;;;;;;5086283;28;20387;-82
2022/08/10 07:52:04;;;;;;;71.87;7.07;;;22.30;1.00;;;;;;5085887;28;20406;-81
2022/08/10 07:54:34;;;;;;;71.53;7.43;;;22.30;1.00;;;;;;5086365;28;20391;-82
2022/08/10 07:57:05;;;;;;;70.40;7.47;;;22.40;1.00;;;;;;5069146;28;20493;-82
2022/08/10 07:59:37;;;;;;;69.93;6.97;;;22.50;1.00;;;;;;5071109;28;20438;-82
2022/08/10 08:02:12;;;;;;;70.87;6.83;;;22.70;1.00;;;;;;5087402;28;20406;-82
2022/08/10 08:04:39;;;;;;;69.37;7.20;;;22.70;1.00;;;;;;5087592;28;20390;-82
2022/08/10 08:07:07;;;;;;;71.00;7.40;;;22.80;1.00;;;;;;5087662;28;20418;-82
2022/08/10 08:09:36;;;;;;;67.97;5.80;;;22.80;1.00;;;;;;5088133;28;20469;-82
2022/08/10 08:12:05;;;;;;;69.80;6.80;;;22.90;1.00;;;;;;5087907;28;20469;-82
2022/08/10 08:14:32;;;;;;;68.47;5.10;;;22.90;1.00;;;;;;5086188;28;20428;-82
2022/08/10 08:16:58;;;;;;;68.93;4.43;;;23.00;1.00;;;;;;5086584;28;20414;-82
2022/08/10 08:19:26;;;;;;;73.17;5.87;;;23.10;1.00;;;;;;5070022;28;20446;-81
2022/08/10 08:21:54;;;;;;;68.00;4.60;;;23.10;1.00;;;;;;5071397;28;20385;-82
2022/08/10 08:24:22;;;;;;;76.93;4.80;;;23.20;1.00;;;;;;5088515;28;20410;-81
2022/08/10 08:26:49;;;;;;;67.33;4.27;;;23.40;1.00;;;;;;5089186;28;20529;-82
2022/08/10 08:29:15;;;;;;;67.33;4.73;;;23.40;1.00;;;;;;5089426;28;20431;-81
2022/08/10 08:31:43;;;;;;;67.23;4.17;;;23.50;1.00;;;;;;5088981;28;20494;-82
2022/08/10 08:34:12;;;;;;;69.07;4.30;;;23.60;1.00;;;;;;5088271;28;20436;-82
2022/08/10 08:36:41;;;;;;;67.97;5.30;;;23.70;1.00;;;;;;5088420;28;20419;-82
2022/08/10 08:39:07;;;;;;;68.60;4.50;;;23.70;1.00;;;;;;5070361;28;20511;-82
2022/08/10 08:41:44;;;;;;;66.53;3.93;;;23.80;1.00;;;;;;5088709;28;20441;-82
2022/08/10 08:44:44;;;;;;;68.47;4.40;;;23.90;1.00;;;;;;5070103;28;20619;-81
2022/08/10 08:47:58;;;;;;;70.70;4.60;;;23.90;1.00;;;;;;5090231;28;20440;-82
2022/08/10 08:50:54;;;;;;;71.43;4.53;;;24.00;1.00;;;;;;5043685;28;20411;-82
2022/08/10 08:53:42;;;;;;;69.57;3.93;;;24.10;1.00;;;;;;5088723;28;20396;-82
2022/08/10 08:56:27;;;;;;;71.77;3.97;;;24.20;1.00;;;;;;5072218;28;20551;-82
2022/08/10 08:59:20;;;;;;;67.20;4.10;;;24.30;1.00;;;;;;5087824;28;20464;-81
2022/08/10 09:02:23;;;;;;;75.90;4.30;;;24.30;1.00;;;;;;5088819;28;20378;-81
2022/08/10 09:05:12;;;;;;;66.87;3.80;;;24.40;1.00;;;;;;5069147;28;20410;-82
2022/08/10 09:08:02;;;;;;;71.07;4.10;;;24.50;1.00;;;;;;5088128;28;20419;-81
2022/08/10 09:10:56;;;;;;;68.07;4.07;;;24.50;1.00;;;;;;5088685;28;20378;-82
2022/08/10 09:13:35;;;;;;;68.80;4.53;;;24.60;1.00;;;;;;5087386;28;20494;-82
2022/08/10 09:16:28;;;;;;;68.77;4.83;;;24.80;1.00;;;;;;5089560;28;20422;-81
2022/08/10 09:19:32;;;;;;;69.80;4.60;;;24.80;1.00;;;;;;5088404;28;20436;-82
2022/08/10 09:22:06;;;;;;;67.07;4.03;;;24.90;1.00;;;;;;5087964;28;20880;-81
2022/08/10 09:24:40;;;;;;;66.60;3.93;;;25.20;1.00;;;;;;5092951;22;20491;-84
2022/08/10 09:27:38;;;;;;;72.00;3.83;;;25.20;1.00;;;;;;5075858;28;20824;-84
2022/08/10 09:30:06;;;;;;;68.87;4.33;;;25.30;1.00;;;;;;5057458;28;20387;-85
2022/08/10 09:32:42;;;;;;;70.27;5.07;;;25.40;1.00;;;;;;5075035;28;20492;-85
2022/08/10 09:35:17;;;;;;;67.10;4.27;;;25.60;1.00;;;;;;5057389;28;20410;-84
2022/08/10 09:38:04;;;;;;;67.10;5.43;;;25.60;1.00;;;;;;5057687;28;20502;-85
2022/08/10 09:40:53;;;;;;;72.97;4.83;;;25.80;1.00;;;;;;5057592;28;20846;-84
2022/08/10 09:43:25;;;;;;;68.17;4.90;;;25.90;1.00;;;;;;5059948;28;20395;-84
2022/08/10 09:46:04;;;;;;;67.70;4.40;;;25.90;1.00;;;;;;5062580;28;20867;-85
2022/08/10 09:48:44;;;;;;;66.57;4.23;;;25.90;1.00;;;;;;5081946;28;20385;-85
2022/08/10 09:51:33;;;;;;;67.37;3.90;;;26.00;1.00;;;;;;5082889;28;20734;-85
2022/08/10 09:54:03;;;;;;;65.90;3.33;;;26.20;1.00;;;;;;5082345;28;20382;-85
2022/08/10 09:56:31;;;;;;;68.70;3.80;;;26.40;1.00;;;;;;5066470;28;20488;-85
2022/08/10 09:59:09;;;;;;;69.10;3.97;;;26.50;1.00;;;;;;5084901;28;20847;-84
2022/08/10 10:01:42;;;;;;;67.97;3.50;;;26.70;1.00;;;;;;5066087;28;20402;-85
2022/08/10 10:04:27;;;;;;;66.70;3.80;;;26.70;1.00;;;;;;5081232;28;20382;-85
2022/08/10 10:06:59;;;;;;;66.37;4.70;;;26.80;1.00;;;;;;5082991;28;20429;-85
2022/08/10 10:09:46;;;;;;;67.70;4.83;;;27.00;1.00;;;;;;5082802;28;20409;-85
2022/08/10 10:12:43;;;;;;;68.70;4.47;;;27.20;1.00;;;;;;5082573;28;20398;-85
2022/08/10 10:15:21;;;;;;;67.40;4.03;;;27.40;1.00;;;;;;5064584;28;20413;-85
2022/08/10 10:18:02;;;;;;;67.27;3.63;;;27.50;1.00;;;;;;5083628;28;20383;-85
2022/08/10 10:21:02;;;;;;;72.27;3.63;;;27.70;1.00;;;;;;5062645;28;20473;-85
2022/08/10 10:23:39;;;;;;;67.63;3.57;;;27.80;1.00;;;;;;5082764;28;20432;-85
2022/08/10 10:26:23;;;;;;;67.90;3.47;;;27.90;1.00;;;;;;5082243;28;20477;-85
2022/08/10 10:28:56;;;;;;;68.27;3.63;;;27.90;1.00;;;;;;5061278;28;20403;-85
2022/08/10 10:31:29;;;;;;;69.00;3.73;;;28.10;1.00;;;;;;5081099;28;20464;-85
2022/08/10 10:34:24;;;;;;;69.70;4.40;;;28.20;1.00;;;;;;5062523;28;20410;-85
2022/08/10 10:36:51;;;;;;;68.00;3.53;;;28.30;1.00;;;;;;5060572;28;20438;-85
2022/08/10 10:39:20;;;;;;;67.80;3.77;;;28.40;1.00;;;;;;5077537;28;20519;-85
2022/08/10 10:42:21;;;;;;;67.27;3.53;;;28.50;1.00;;;;;;5060324;28;20772;-85
2022/08/10 10:44:49;;;;;;;67.17;3.77;;;28.70;1.00;;;;;;5061255;28;20415;-85
2022/08/10 10:47:32;;;;;;;68.30;4.60;;;28.80;1.00;;;;;;5079428;28;20426;-85
2022/08/10 10:50:11;;;;;;;68.77;4.10;;;28.90;1.00;;;;;;5080858;28;20390;-85
2022/08/10 10:53:07;;;;;;;67.40;3.70;;;29.20;1.00;;;;;;5061132;28;20924;-85
2022/08/10 10:55:42;;;;;;;68.07;3.77;;;29.50;1.00;;;;;;5059651;28;20427;-85
2022/08/10 10:58:39;;;;;;;67.97;3.53;;;29.80;1.00;;;;;;5077058;28;20398;-85
2022/08/10 11:01:13;;;;;;;68.47;4.03;;;30.10;1.00;;;;;;5078547;28;20387;-85
2022/08/10 11:03:52;;;;;;;69.50;3.77;;;30.20;1.00;;;;;;5078292;28;20971;-85
2022/08/10 11:06:30;;;;;;;67.80;3.50;;;30.40;1.00;;;;;;5077800;28;20449;-85
2022/08/10 11:09:01;;;;;;;69.37;3.87;;;30.40;1.00;;;;;;5078625;28;20378;-85
2022/08/10 11:11:34;;;;;;;66.77;3.60;;;30.30;1.00;;;;;;5078179;28;20389;-85
2022/08/10 11:14:15;;;;;;;67.23;3.30;;;30.00;1.00;;;;;;5078913;28;20385;-85
2022/08/10 11:16:52;;;;;;;71.07;4.43;;;30.30;1.00;;;;;;5077896;28;20414;-85
2022/08/10 11:19:32;;;;;;;70.70;4.90;;;30.40;1.00;;;;;;5077277;28;20446;-85
2022/08/10 11:22:01;;;;;;;68.70;4.50;;;30.50;1.00;;;;;;5060145;28;20398;-85
2022/08/10 11:24:42;;;;;;;68.27;5.93;;;30.60;1.00;;;;;;5077523;28;20501;-85
2022/08/10 11:27:37;;;;;;;68.73;5.30;;;31.00;1.00;;;;;;5059526;28;20434;-85
2022/08/10 11:30:09;;;;;;;67.57;5.20;;;30.90;1.00;;;;;;5043118;28;20406;-85
2022/08/10 11:33:16;;;;;;;69.97;4.60;;;30.70;1.00;;;;;;5058967;28;20395;-85
2022/08/10 11:36:02;;;;;;;68.60;4.37;;;30.60;1.00;;;;;;5027438;28;20426;-85
2022/08/10 11:38:41;;;;;;;71.83;4.17;;;31.00;1.00;;;;;;5076166;28;20395;-85
2022/08/10 11:41:17;;;;;;;68.37;3.30;;;31.30;1.00;;;;;;5075342;28;20444;-85
2022/08/10 11:43:53;;;;;;;66.90;3.17;;;31.40;1.00;;;;;;5059851;28;20424;-85
2022/08/10 11:46:30;;;;;;;66.97;2.80;;;31.20;1.00;;;;;;5061422;28;20435;-85
2022/08/10 11:49:05;;;;;;;68.77;3.57;;;30.90;1.00;;;;;;5078210;28;20397;-85
2022/08/10 11:51:57;;;;;;;66.87;2.90;;;30.70;1.00;;;;;;5077559;28;20437;-85
2022/08/10 11:54:44;;;;;;;67.80;3.47;;;30.90;1.00;;;;;;5060444;28;20398;-85
2022/08/10 11:57:11;;;;;;;70.70;3.07;;;31.20;1.00;;;;;;5058139;28;20430;-85
2022/08/10 11:59:57;;;;;;;67.97;3.60;;;31.30;1.00;;;;;;5076621;28;20441;-85
2022/08/10 12:02:38;;;;;;;69.60;2.80;;;31.30;1.00;;;;;;5060260;28;20504;-85
2022/08/10 12:05:30;;;;;;;67.80;3.03;;;31.20;1.00;;;;;;5080382;28;20440;-85
2022/08/10 12:07:59;;;;;;;67.00;2.90;;;31.30;1.00;;;;;;5058885;28;20446;-86
2022/08/10 12:10:26;;;;;;;70.00;3.27;;;31.50;1.00;;;;;;5058363;28;20456;-86
2022/08/10 12:13:09;;;;;;;67.87;2.63;;;31.40;1.00;;;;;;5078316;28;20406;-85
2022/08/10 12:15:45;;;;;;;69.57;3.60;;;31.70;1.00;;;;;;5076685;28;20463;-85
2022/08/10 12:18:23;;;;;;;72.27;3.00;;;31.80;1.00;;;;;;5057617;28;20402;-85
2022/08/10 12:20:56;;;;;;;69.80;3.30;;;32.00;1.00;;;;;;5056926;28;20464;-86
2022/08/10 12:23:32;;;;;;;68.60;2.87;;;32.20;1.00;;;;;;5075035;28;20422;-85
2022/08/10 12:26:19;;;;;;;67.43;3.27;;;31.80;1.00;;;;;;5075140;28;20493;-85
2022/08/10 12:29:02;;;;;;;67.20;2.70;;;31.60;1.00;;;;;;5056608;28;20415;-85
2022/08/10 12:31:37;;;;;;;66.47;2.90;;;31.40;1.00;;;;;;5074173;28;20425;-85
2022/08/10 12:34:10;;;;;;;68.30;3.40;;;31.50;1.00;;;;;;5073787;28;20413;-86
2022/08/10 12:36:43;;;;;;;66.27;2.50;;;31.60;1.00;;;;;;5055891;28;20929;-85
2022/08/10 12:39:12;;;;;;;68.50;2.93;;;31.70;1.00;;;;;;5055337;28;20490;-85
2022/08/10 12:41:53;;;;;;;67.97;3.00;;;32.00;1.00;;;;;;5055555;28;20459;-85
2022/08/10 12:44:47;;;;;;;68.93;2.80;;;31.90;1.00;;;;;;5055891;28;20502;-85
2022/08/10 12:47:54;;;;;;;70.00;3.17;;;32.10;1.00;;;;;;5070572;28;20862;-85
2022/08/10 12:50:37;;;;;;;68.63;3.00;;;32.30;1.00;;;;;;5015528;28;20419;-85
2022/08/10 12:53:39;;;;;;;67.87;2.97;;;32.30;1.00;;;;;;5055729;28;20414;-85
2022/08/10 12:56:05;;;;;;;70.50;3.30;;;32.30;1.00;;;;;;5078883;28;20482;-85
2022/08/10 12:58:33;;;;;;;67.50;2.93;;;32.40;1.00;;;;;;5077859;28;20414;-85
2022/08/10 13:01:04;;;;;;;67.50;3.20;;;32.40;1.00;;;;;;5076691;28;20398;-85
2022/08/10 13:03:32;;;;;;;66.80;3.10;;;32.50;1.00;;;;;;5058409;28;20402;-85
2022/08/10 13:06:04;;;;;;;68.20;3.47;;;32.70;1.00;;;;;;5076644;28;20797;-85
2022/08/10 13:11:22;;;;;;;68.47;3.30;;;32.50;1.00;;;;;;5078465;28;20762;-85
2022/08/10 13:13:50;;;;;;;68.17;3.23;;;32.80;1.00;;;;;;5058814;28;20405;-86
2022/08/10 13:16:21;;;;;;;69.90;3.47;;;33.00;1.00;;;;;;5142884;22;20493;-86